Cartersville, Iowa
Current Conditions -  °F | °C
As of 12:53 PM on Friday 28 Nov 2014 (Local Time) from KMCW Reporting Station
Few Clouds Few Clouds  
Wind Chill: 12°   Ceiling: Unl
Heat Index: 23°   Visibility: 10mi
Dew Point: 19°   Wind: 12mph
Humidity: 85%   Direction: 130°SE
Pressure: 29.86"   Gusts: NA
Location:  43.0122°N, 93.2395°W
Report Text: KMCW 281853Z AUTO 13010KT 10SM FEW100 M05/M07 A2986 RMK AO2 SLP126 T10501072
Loading
Personal Weather Stations






























Interactive Weather Map New forecast layout! Learn more

10-Day Weather Forecast

Advertisements
Track Severe Weather on mobile